createdAt,value
2022-11-29T00:01:05.083Z,91755.38
2022-11-29T00:03:52.650Z,91751.06
2022-11-29T00:06:40.239Z,91739.53
2022-11-29T00:09:27.809Z,91747.28
2022-11-29T00:12:15.374Z,91738.78
2022-11-29T00:15:02.935Z,91739.75
2022-11-29T00:17:50.464Z,91741.69
2022-11-29T00:20:38.027Z,91735.47
2022-11-29T00:23:25.579Z,91729.28
2022-11-29T00:26:13.146Z,91735.59
2022-11-29T00:29:00.685Z,91729.38
2022-11-29T00:31:48.346Z,91736.66
2022-11-29T00:34:37.868Z,91723.59
2022-11-29T00:37:25.445Z,91733.56
2022-11-29T00:40:13.018Z,91729.03
2022-11-29T00:43:00.597Z,91720.78
2022-11-29T00:45:48.258Z,91719.34
2022-11-29T00:48:35.880Z,91716.09
2022-11-29T00:51:23.430Z,91722.50
2022-11-29T00:54:10.990Z,91718.78
2022-11-29T00:56:58.565Z,91720.50
2022-11-29T00:59:46.139Z,91717.19
2022-11-29T01:02:33.877Z,91725.22
2022-11-29T01:05:21.449Z,91721.00
2022-11-29T01:08:09.025Z,91718.84
2022-11-29T01:10:56.638Z,91713.56
2022-11-29T01:13:44.184Z,91723.84
2022-11-29T01:16:31.901Z,91718.22
2022-11-29T01:19:19.505Z,91723.44
2022-11-29T01:22:07.073Z,91724.06
2022-11-29T01:24:54.658Z,91720.91
2022-11-29T01:27:42.199Z,91722.25
2022-11-29T01:30:29.841Z,91724.44
2022-11-29T01:33:17.447Z,91721.22
2022-11-29T01:36:05.024Z,91717.88
2022-11-29T01:38:52.566Z,91714.75
2022-11-29T01:41:40.140Z,91714.91
2022-11-29T01:44:27.688Z,91717.59
2022-11-29T01:47:15.274Z,91719.50
2022-11-29T01:50:02.853Z,91721.19
2022-11-29T01:52:50.465Z,91717.44
2022-11-29T01:55:38.141Z,91713.00
2022-11-29T01:58:25.898Z,91710.38
2022-11-29T02:01:13.487Z,91713.34
2022-11-29T02:04:01.103Z,91704.63
2022-11-29T02:06:48.714Z,91705.13
2022-11-29T02:09:36.266Z,91700.47
2022-11-29T02:12:23.846Z,91697.25
2022-11-29T02:15:11.418Z,91700.34
2022-11-29T02:17:58.992Z,91697.59
2022-11-29T02:20:46.556Z,91693.94
2022-11-29T02:23:34.111Z,91698.75
2022-11-29T02:26:21.658Z,91693.03
2022-11-29T02:29:09.215Z,91690.63
2022-11-29T02:31:56.765Z,91690.13
2022-11-29T02:34:44.691Z,91701.72
2022-11-29T02:37:32.405Z,91701.06
2022-11-29T02:40:19.974Z,91694.41
2022-11-29T02:43:07.509Z,91691.94
2022-11-29T02:45:55.106Z,91697.34
2022-11-29T02:48:42.664Z,91703.22
2022-11-29T02:51:30.258Z,91700.31
2022-11-29T02:54:17.808Z,91703.41
2022-11-29T02:57:05.380Z,91700.25
2022-11-29T02:59:52.926Z,91702.50
2022-11-29T03:02:40.517Z,91704.75
2022-11-29T03:05:28.074Z,91703.53
2022-11-29T03:08:15.646Z,91707.69
2022-11-29T03:11:03.221Z,91705.53
2022-11-29T03:13:50.755Z,91704.91
2022-11-29T03:16:42.844Z,91705.88
2022-11-29T03:19:30.929Z,91704.94
2022-11-29T03:22:18.474Z,91699.25
2022-11-29T03:25:08.145Z,91694.91
2022-11-29T03:27:55.711Z,91700.78
2022-11-29T03:30:43.328Z,91706.69
2022-11-29T03:33:30.894Z,91704.19
2022-11-29T03:36:18.451Z,91702.00
2022-11-29T03:39:06.028Z,91708.13
2022-11-29T03:41:53.710Z,91698.66
2022-11-29T03:44:41.391Z,91699.47
2022-11-29T03:47:29.013Z,91687.59
2022-11-29T03:50:16.553Z,91694.66
2022-11-29T03:53:04.157Z,91694.63
2022-11-29T03:55:51.721Z,91702.94
2022-11-29T03:58:39.289Z,91700.69
2022-11-29T04:01:26.931Z,91699.81
2022-11-29T04:04:14.533Z,91707.31
2022-11-29T04:07:02.114Z,91700.59
2022-11-29T04:09:49.682Z,91710.44
2022-11-29T04:12:37.269Z,91699.50
2022-11-29T04:15:35.868Z,91713.72
2022-11-29T04:18:23.446Z,91709.75
2022-11-29T04:21:10.985Z,91711.53
2022-11-29T04:23:58.568Z,91709.81
2022-11-29T04:26:46.114Z,91705.75
2022-11-29T04:29:33.665Z,91715.31
2022-11-29T04:32:21.230Z,91718.97
2022-11-29T04:35:08.766Z,91724.44
2022-11-29T04:37:56.359Z,91716.16
2022-11-29T04:40:43.958Z,91718.31
2022-11-29T04:43:31.505Z,91725.34
2022-11-29T04:46:19.183Z,91726.50
2022-11-29T04:49:06.789Z,91726.09
2022-11-29T04:51:54.378Z,91723.50
2022-11-29T04:54:42.244Z,91719.81
2022-11-29T04:57:30.015Z,91722.88
2022-11-29T05:00:17.578Z,91715.03
2022-11-29T05:03:05.165Z,91727.13
2022-11-29T05:05:52.782Z,91719.25
2022-11-29T05:08:40.369Z,91724.28
2022-11-29T05:11:27.902Z,91728.88
2022-11-29T05:14:15.477Z,91725.00
2022-11-29T05:17:03.030Z,91729.78
2022-11-29T05:19:50.587Z,91736.59
2022-11-29T05:22:38.118Z,91728.44
2022-11-29T05:25:25.667Z,91734.94
2022-11-29T05:28:13.265Z,91725.22
2022-11-29T05:31:00.941Z,91727.53
2022-11-29T05:33:48.495Z,91732.06
2022-11-29T05:36:37.633Z,91731.53
2022-11-29T05:39:25.183Z,91736.34
2022-11-29T05:42:12.759Z,91742.97
2022-11-29T05:45:00.286Z,91747.44
2022-11-29T05:47:47.867Z,91750.53
2022-11-29T05:50:35.436Z,91750.56
2022-11-29T05:53:23.002Z,91748.00
2022-11-29T05:56:10.568Z,91754.69
2022-11-29T05:58:58.151Z,91757.59
2022-11-29T06:01:45.711Z,91758.59
2022-11-29T06:04:33.310Z,91748.81
2022-11-29T06:07:20.917Z,91756.53
2022-11-29T06:10:08.516Z,91754.16
2022-11-29T06:12:56.070Z,91751.97
2022-11-29T06:15:43.638Z,91755.75
2022-11-29T06:18:31.186Z,91763.78
2022-11-29T06:21:18.779Z,91761.88
2022-11-29T06:24:06.333Z,91763.38
2022-11-29T06:26:53.913Z,91757.50
2022-11-29T06:29:41.472Z,91755.00
2022-11-29T06:32:29.042Z,91759.91
2022-11-29T06:35:16.617Z,91761.88
2022-11-29T06:38:04.189Z,91764.69
2022-11-29T06:40:53.960Z,91768.09
2022-11-29T06:43:43.518Z,91768.00
2022-11-29T06:46:31.169Z,91768.19
2022-11-29T06:49:18.770Z,91769.03
2022-11-29T06:52:06.364Z,91772.91
2022-11-29T06:54:53.936Z,91783.19
2022-11-29T06:57:41.538Z,91788.84
2022-11-29T07:00:29.156Z,91784.50
2022-11-29T07:03:16.869Z,91782.78
2022-11-29T07:06:04.403Z,91784.72
2022-11-29T07:08:51.975Z,91785.81
2022-11-29T07:11:39.521Z,91795.63
2022-11-29T07:14:27.103Z,91792.44
2022-11-29T07:17:14.650Z,91786.66
2022-11-29T07:20:02.231Z,91794.19
2022-11-29T07:22:49.789Z,91798.44
2022-11-29T07:25:37.357Z,91793.31
2022-11-29T07:28:24.920Z,91793.41
2022-11-29T07:31:12.597Z,91796.16
2022-11-29T07:34:00.204Z,91791.31
2022-11-29T07:36:47.791Z,91797.69
2022-11-29T07:39:35.355Z,91795.41
2022-11-29T07:42:22.937Z,91798.06
2022-11-29T07:45:10.537Z,91794.59
2022-11-29T07:47:58.153Z,91799.09
2022-11-29T07:50:45.782Z,91799.75
2022-11-29T07:53:33.388Z,91810.78
2022-11-29T07:56:20.966Z,91805.44
2022-11-29T07:59:08.576Z,91810.84
2022-11-29T08:01:56.251Z,91799.59
2022-11-29T08:04:44.082Z,91802.94
2022-11-29T08:07:32.110Z,91809.25
2022-11-29T08:10:19.690Z,91814.97
2022-11-29T08:13:07.267Z,91814.91
2022-11-29T08:15:55.020Z,91820.78
2022-11-29T08:18:42.685Z,91820.78
2022-11-29T08:21:30.310Z,91814.94
2022-11-29T08:24:17.965Z,91822.50
2022-11-29T08:27:05.594Z,91822.16
2022-11-29T08:29:53.189Z,91820.78
2022-11-29T08:32:40.814Z,91820.94
2022-11-29T08:35:28.406Z,91834.19
2022-11-29T08:38:15.975Z,91843.44
2022-11-29T08:41:03.558Z,91843.13
2022-11-29T08:43:51.176Z,91843.81
2022-11-29T08:46:38.753Z,91845.88
2022-11-29T08:49:26.339Z,91834.81
2022-11-29T08:52:13.895Z,91837.16
2022-11-29T08:55:03.286Z,91851.31
2022-11-29T08:57:51.090Z,91850.78
2022-11-29T09:00:38.758Z,91858.28
2022-11-29T09:03:26.311Z,91857.19
2022-11-29T09:06:13.882Z,91857.44
2022-11-29T09:09:01.427Z,91862.63
2022-11-29T09:11:49.674Z,91862.56
2022-11-29T09:14:17.278Z,91862.53
2022-11-29T09:16:44.704Z,91857.03
2022-11-29T09:19:12.135Z,91867.03
2022-11-29T09:21:39.521Z,91864.03
2022-11-29T09:24:06.988Z,91872.59
2022-11-29T09:26:34.362Z,91863.69
2022-11-29T09:29:01.992Z,91868.97
2022-11-29T09:31:29.454Z,91866.78
2022-11-29T09:33:56.855Z,91876.22
2022-11-29T09:36:28.553Z,91884.13
2022-11-29T09:38:56.667Z,91883.69
2022-11-29T09:41:27.430Z,91876.25
2022-11-29T09:43:54.840Z,91868.72
2022-11-29T09:46:22.324Z,91877.63
2022-11-29T09:48:49.765Z,91879.22
2022-11-29T09:51:17.187Z,91871.91
2022-11-29T09:53:44.633Z,91877.53
2022-11-29T09:56:11.998Z,91877.19
2022-11-29T09:58:39.458Z,91877.72
2022-11-29T10:01:06.922Z,91881.66
2022-11-29T10:03:34.414Z,91875.69
2022-11-29T10:06:01.813Z,91873.13
2022-11-29T10:08:29.330Z,91879.97
2022-11-29T10:10:56.784Z,91872.41
2022-11-29T10:13:24.232Z,91875.88
2022-11-29T10:15:51.606Z,91870.63
2022-11-29T10:18:18.974Z,91879.69
2022-11-29T10:20:49.218Z,91886.41
2022-11-29T10:23:16.746Z,91878.53
2022-11-29T10:25:44.133Z,91876.75
2022-11-29T10:28:11.495Z,91877.63
2022-11-29T10:30:38.897Z,91873.84
2022-11-29T10:33:06.331Z,91873.91
2022-11-29T10:35:33.730Z,91869.28
2022-11-29T10:38:30.366Z,91865.00
2022-11-29T10:40:48.478Z,91866.41
2022-11-29T10:43:15.863Z,91872.34
2022-11-29T10:45:43.479Z,91867.19
2022-11-29T10:48:10.944Z,91871.00
2022-11-29T10:50:38.361Z,91865.78
2022-11-29T10:53:05.820Z,91868.94
2022-11-29T10:55:33.226Z,91865.88
2022-11-29T10:58:00.594Z,91865.56
2022-11-29T11:00:27.954Z,91862.03
2022-11-29T11:02:55.427Z,91854.03
2022-11-29T11:05:22.871Z,91857.00
2022-11-29T11:07:50.279Z,91859.00
2022-11-29T11:10:17.867Z,91858.59
2022-11-29T11:12:45.258Z,91857.09
2022-11-29T11:15:12.656Z,91861.56
2022-11-29T11:17:40.022Z,91862.78
2022-11-29T11:20:07.403Z,91860.59
2022-11-29T11:22:34.790Z,91853.97
2022-11-29T11:25:02.156Z,91859.78
2022-11-29T11:27:29.555Z,91858.97
2022-11-29T11:29:56.912Z,91861.22
2022-11-29T11:32:24.290Z,91855.03
2022-11-29T11:34:51.701Z,91859.06
2022-11-29T11:37:19.097Z,91852.03
2022-11-29T11:39:46.508Z,91862.66
2022-11-29T11:42:13.936Z,91854.97
2022-11-29T11:44:48.800Z,91858.50
2022-11-29T11:47:16.234Z,91854.91
2022-11-29T11:49:43.602Z,91855.84
2022-11-29T11:52:10.966Z,91849.09
2022-11-29T11:54:38.333Z,91863.63
2022-11-29T11:57:05.709Z,91864.06
2022-11-29T11:59:33.083Z,91860.91
2022-11-29T12:02:00.460Z,91859.94
2022-11-29T12:04:27.857Z,91861.34
2022-11-29T12:06:55.216Z,91861.25
2022-11-29T12:09:22.586Z,91864.13
2022-11-29T12:11:49.962Z,91866.13
2022-11-29T12:14:17.440Z,91866.56
2022-11-29T12:16:44.814Z,91868.19
2022-11-29T12:19:12.187Z,91869.06
2022-11-29T12:21:39.589Z,91869.06
2022-11-29T12:24:07.002Z,91869.81
2022-11-29T12:26:56.333Z,91873.09
2022-11-29T12:29:21.688Z,91865.91
2022-11-29T12:31:49.062Z,91872.41
2022-11-29T12:34:20.997Z,91866.91
2022-11-29T12:36:49.743Z,91867.84
2022-11-29T12:39:17.135Z,91864.50
2022-11-29T12:41:47.259Z,91870.38
2022-11-29T12:44:18.336Z,91871.47
2022-11-29T12:46:45.763Z,91871.78
2022-11-29T12:49:13.145Z,91866.91
2022-11-29T12:51:40.563Z,91875.25
2022-11-29T12:54:07.967Z,91869.16
2022-11-29T12:56:35.341Z,91865.16
2022-11-29T12:59:02.769Z,91868.31
2022-11-29T13:01:30.262Z,91865.00
2022-11-29T13:03:57.693Z,91858.59
2022-11-29T13:06:25.106Z,91870.59
2022-11-29T13:08:52.464Z,91862.53
2022-11-29T13:11:20.010Z,91860.25
2022-11-29T13:13:47.433Z,91863.97
2022-11-29T13:16:21.285Z,91864.94
2022-11-29T13:18:49.502Z,91867.84
2022-11-29T13:21:16.926Z,91862.44
2022-11-29T13:24:07.997Z,91869.25
2022-11-29T13:26:31.712Z,91862.19
2022-11-29T13:28:59.157Z,91862.59
2022-11-29T13:31:26.833Z,91865.81
2022-11-29T13:33:54.324Z,91865.91
2022-11-29T13:36:21.692Z,91865.25
2022-11-29T13:38:49.056Z,91858.97
2022-11-29T13:41:16.484Z,91857.91
2022-11-29T13:43:43.854Z,91866.88
2022-11-29T13:46:11.302Z,91859.19
2022-11-29T13:48:38.715Z,91871.34
2022-11-29T13:51:06.079Z,91874.19
2022-11-29T13:53:33.455Z,91875.91
2022-11-29T13:56:00.839Z,91875.56
2022-11-29T13:58:28.217Z,91875.56
2022-11-29T14:01:14.373Z,91879.06
2022-11-29T14:04:02.947Z,91875.38
2022-11-29T14:06:30.433Z,91880.78
2022-11-29T14:11:45.170Z,91875.59
2022-11-29T14:14:12.527Z,91876.44
2022-11-29T14:16:39.901Z,91879.38
2022-11-29T14:19:30.092Z,91874.41
2022-11-29T14:22:00.360Z,91879.50
2022-11-29T14:24:27.742Z,91879.69
2022-11-29T14:27:13.935Z,91880.03
2022-11-29T14:30:01.499Z,91878.81
2022-11-29T14:32:49.055Z,91873.72
2022-11-29T14:35:36.606Z,91876.09
2022-11-29T14:38:30.696Z,91880.34
2022-11-29T14:41:18.578Z,91881.72
2022-11-29T14:44:06.237Z,91888.50
2022-11-29T14:46:53.829Z,91888.34
2022-11-29T14:49:41.406Z,91892.28
2022-11-29T14:52:28.942Z,91889.00
2022-11-29T14:55:16.551Z,91887.78
2022-11-29T14:58:04.126Z,91891.63
2022-11-29T15:00:51.775Z,91887.56
2022-11-29T15:03:39.480Z,91889.34
2022-11-29T15:06:27.136Z,91895.22
2022-11-29T15:09:14.748Z,91898.66
2022-11-29T15:12:02.322Z,91896.31
2022-11-29T15:14:49.904Z,91894.78
2022-11-29T15:17:37.483Z,91898.84
2022-11-29T15:20:25.035Z,91895.94
2022-11-29T15:23:12.614Z,91894.97
2022-11-29T15:26:00.166Z,91899.16
2022-11-29T15:28:47.733Z,91896.81
2022-11-29T15:31:35.402Z,91899.56
2022-11-29T15:34:23.018Z,91892.09
2022-11-29T15:37:10.606Z,91900.69
2022-11-29T15:39:58.195Z,91904.72
2022-11-29T15:42:45.775Z,91903.00
2022-11-29T15:45:33.467Z,91900.34
2022-11-29T15:48:21.074Z,91908.50
2022-11-29T15:51:08.674Z,91907.16
2022-11-29T15:54:10.137Z,91913.16
2022-11-29T15:56:59.575Z,91914.50
2022-11-29T15:59:47.132Z,91917.56
2022-11-29T16:02:34.803Z,91920.19
2022-11-29T16:05:22.447Z,91916.84
2022-11-29T16:08:10.015Z,91915.84
2022-11-29T16:10:57.587Z,91928.38
2022-11-29T16:13:45.154Z,91927.81
2022-11-29T16:16:32.897Z,91933.06
2022-11-29T16:19:20.535Z,91920.66
2022-11-29T16:22:08.130Z,91928.84
2022-11-29T16:24:55.726Z,91927.28
2022-11-29T16:27:43.277Z,91927.56
2022-11-29T16:30:30.873Z,91927.78
2022-11-29T16:33:18.447Z,91929.94
2022-11-29T16:36:06.099Z,91927.06
2022-11-29T16:38:53.676Z,91924.94
2022-11-29T16:41:41.268Z,91929.91
2022-11-29T16:44:28.834Z,91931.56
2022-11-29T16:47:16.399Z,91928.50
2022-11-29T16:50:03.950Z,91930.53
2022-11-29T16:52:56.317Z,91928.88
2022-11-29T16:55:44.302Z,91922.28
2022-11-29T16:58:31.883Z,91930.34
2022-11-29T17:01:19.530Z,91926.78
2022-11-29T17:04:07.218Z,91927.81
2022-11-29T17:06:54.832Z,91931.69
2022-11-29T17:09:42.432Z,91926.16
2022-11-29T17:12:30.000Z,91933.88
2022-11-29T17:15:17.550Z,91939.94
2022-11-29T17:18:05.153Z,91937.97
2022-11-29T17:20:52.707Z,91940.03
2022-11-29T17:23:40.289Z,91938.81
2022-11-29T17:26:27.900Z,91942.22
2022-11-29T17:29:15.534Z,91938.22
2022-11-29T17:32:03.227Z,91941.00
2022-11-29T17:34:50.836Z,91943.47
2022-11-29T17:37:38.398Z,91943.22
2022-11-29T17:40:25.985Z,91934.91
2022-11-29T17:43:13.561Z,91939.09
2022-11-29T17:46:01.194Z,91945.00
2022-11-29T17:48:48.798Z,91947.28
2022-11-29T17:51:53.012Z,91947.22
2022-11-29T17:54:40.978Z,91946.00
2022-11-29T17:57:28.531Z,91947.41
2022-11-29T18:00:16.100Z,91955.19
2022-11-29T18:03:03.655Z,91955.44
2022-11-29T18:05:51.263Z,91956.06
2022-11-29T18:08:38.842Z,91952.50
2022-11-29T18:11:26.439Z,91952.94
2022-11-29T18:14:13.994Z,91958.50
2022-11-29T18:17:01.643Z,91965.56
2022-11-29T18:19:49.246Z,91959.97
2022-11-29T18:22:36.847Z,91953.50
2022-11-29T18:25:38.713Z,91960.78
2022-11-29T18:28:26.982Z,91969.47
2022-11-29T18:31:14.633Z,91974.63
2022-11-29T18:34:02.234Z,91982.75
2022-11-29T18:36:49.879Z,91971.03
2022-11-29T18:39:37.478Z,91983.44
2022-11-29T18:42:25.062Z,91972.75
2022-11-29T18:45:12.661Z,91979.63
2022-11-29T18:48:00.268Z,91974.41
2022-11-29T18:50:47.881Z,91982.88
2022-11-29T18:53:35.479Z,91984.22
2022-11-29T18:56:23.094Z,91975.25
2022-11-29T18:59:10.665Z,91981.31
2022-11-29T19:01:58.279Z,91982.50
2022-11-29T19:04:46.199Z,91979.06
2022-11-29T19:07:34.045Z,91984.28
2022-11-29T19:10:21.650Z,91991.13
2022-11-29T19:13:09.246Z,91989.25
2022-11-29T19:15:56.844Z,91996.91
2022-11-29T19:18:44.511Z,91992.09
2022-11-29T19:21:32.063Z,91991.25
2022-11-29T19:24:19.654Z,91988.97
2022-11-29T19:27:07.237Z,91993.56
2022-11-29T19:29:54.834Z,91990.56
2022-11-29T19:32:42.469Z,91983.78
2022-11-29T19:35:30.074Z,91987.25
2022-11-29T19:38:17.641Z,91983.69
2022-11-29T19:41:05.214Z,91988.19
2022-11-29T19:43:53.913Z,91987.91
2022-11-29T19:46:41.565Z,91986.44
2022-11-29T19:49:29.199Z,91993.59
2022-11-29T19:52:16.802Z,91989.72
2022-11-29T19:55:04.371Z,91985.09
2022-11-29T19:57:52.054Z,91990.72
2022-11-29T20:00:39.657Z,91987.34
2022-11-29T20:03:27.261Z,91986.06
2022-11-29T20:06:14.846Z,91975.44
2022-11-29T20:09:02.507Z,91985.34
2022-11-29T20:11:50.129Z,91985.34
2022-11-29T20:14:39.726Z,91990.03
2022-11-29T20:17:27.323Z,91984.91
2022-11-29T20:20:14.947Z,91985.97
2022-11-29T20:23:02.529Z,91985.09
2022-11-29T20:25:50.116Z,91986.81
2022-11-29T20:28:37.725Z,91986.31
2022-11-29T20:31:25.358Z,91988.19
2022-11-29T20:34:13.010Z,91982.63
2022-11-29T20:37:00.642Z,91991.84
2022-11-29T20:39:48.484Z,91982.94
2022-11-29T20:42:36.373Z,91994.63
2022-11-29T20:45:23.969Z,91995.63
2022-11-29T20:48:11.562Z,91991.72
2022-11-29T20:50:59.129Z,91991.59
2022-11-29T20:53:46.784Z,91989.72
2022-11-29T20:56:34.406Z,91995.88
2022-11-29T20:59:21.972Z,91986.75
2022-11-29T21:02:09.555Z,91988.78
2022-11-29T21:04:57.133Z,91986.94
2022-11-29T21:07:44.737Z,91990.69
2022-11-29T21:10:32.323Z,91993.78
2022-11-29T21:13:19.876Z,91999.94
2022-11-29T21:16:07.566Z,91999.19
2022-11-29T21:18:55.218Z,91995.63
2022-11-29T21:21:42.778Z,91995.25
2022-11-29T21:24:30.383Z,91985.81
2022-11-29T21:27:17.983Z,91984.47
2022-11-29T21:30:05.585Z,91981.72
2022-11-29T21:32:53.193Z,91982.91
2022-11-29T21:35:40.782Z,91986.38
2022-11-29T21:38:28.394Z,91983.44
2022-11-29T21:41:15.959Z,91978.69
2022-11-29T21:44:07.986Z,91985.94
2022-11-29T21:46:56.007Z,91992.59
2022-11-29T21:49:43.613Z,91988.34
2022-11-29T21:52:31.216Z,91988.28
2022-11-29T21:55:18.779Z,91990.97
2022-11-29T21:58:06.352Z,91992.34
2022-11-29T22:00:54.587Z,91986.06
2022-11-29T22:03:42.169Z,91991.34
2022-11-29T22:06:29.757Z,91987.06
2022-11-29T22:09:17.360Z,91984.47
2022-11-29T22:12:25.959Z,91988.09
2022-11-29T22:15:12.477Z,91995.13
2022-11-29T22:18:00.042Z,91982.50
2022-11-29T22:20:47.639Z,91985.41
2022-11-29T22:23:35.189Z,91989.13
2022-11-29T22:26:22.775Z,91988.34
2022-11-29T22:29:10.390Z,91992.34
2022-11-29T22:31:57.967Z,91988.97
2022-11-29T22:34:45.840Z,91985.16
2022-11-29T22:37:33.638Z,91989.81
2022-11-29T22:40:21.266Z,91994.38
2022-11-29T22:43:08.843Z,91994.44
2022-11-29T22:45:58.466Z,91993.03
2022-11-29T22:48:46.027Z,91987.13
2022-11-29T22:51:33.622Z,91990.75
2022-11-29T22:54:21.246Z,91994.56
2022-11-29T22:57:08.826Z,91991.44
2022-11-29T22:59:56.407Z,91988.41
2022-11-29T23:02:43.995Z,91997.78
2022-11-29T23:05:32.594Z,91990.94
2022-11-29T23:08:22.266Z,91994.94
2022-11-29T23:11:09.860Z,91993.53
2022-11-29T23:13:57.459Z,91996.66
2022-11-29T23:16:45.075Z,92000.88
2022-11-29T23:19:32.722Z,91998.69
2022-11-29T23:22:20.306Z,91986.81
2022-11-29T23:25:07.907Z,91994.13
2022-11-29T23:27:55.463Z,91988.97
2022-11-29T23:30:43.034Z,91990.81
2022-11-29T23:33:30.618Z,91982.44
2022-11-29T23:36:18.283Z,91981.22
2022-11-29T23:39:05.822Z,91986.50
2022-11-29T23:41:53.423Z,91989.72
2022-11-29T23:44:41.005Z,91992.66
2022-11-29T23:47:28.613Z,91989.63
2022-11-29T23:50:16.174Z,91986.97
2022-11-29T23:53:03.742Z,91983.72
2022-11-29T23:55:51.315Z,91979.84
2022-11-29T23:58:38.892Z,91979.59
